Time;durP1;ratioP1;P1;durP2;ratioP2;P2;SDS_P1;SDS_P2;PMS_P1;PMS_P2;Temp;Humidity;BMP_temperature;BMP_pressure;BME280_temperature;BME280_humidity;BME280_pressure;Samples;Min_cycle;Max_cycle;Signal;HPM_P1;HPM_P2
2022/09/26 00:01:32;;;;;;;;;;;;;;;8.81;73.03;99671.88;4957443;29;785;-60
2022/09/26 00:04:00;;;;;;;;;;;;;;;8.82;73.37;99673.47;4957134;29;1911;-60
2022/09/26 00:06:27;;;;;;;;;;;;;;;8.78;73.43;99665.19;4956971;29;895;-60
2022/09/26 00:08:54;;;;;;;;;;;;;;;8.71;73.30;99665.97;4957011;29;797;-60
2022/09/26 00:11:25;;;;;;;;;;;;;;;8.76;72.80;99662.81;4956997;29;863;-60
2022/09/26 00:13:53;;;;;;;;;;;;;;;8.79;73.15;99669.53;4957200;29;803;-60
2022/09/26 00:16:19;;;;;;;;;;;;;;;8.69;73.04;99676.59;4957108;29;795;-60
2022/09/26 00:18:49;;;;;;;;;;;;;;;8.69;73.29;99667.56;4957081;29;859;-60
2022/09/26 00:21:16;;;;;;;;;;;;;;;8.69;73.29;99673.06;4956910;29;830;-60
2022/09/26 00:23:42;;;;;;;;;;;;;;;8.56;72.93;99662.44;4956847;29;863;-60
2022/09/26 00:26:09;;;;;;;;;;;;;;;8.46;74.17;99652.19;4956829;29;1886;-60
2022/09/26 00:28:36;;;;;;;;;;;;;;;8.34;74.06;99666.28;4956822;29;882;-60
2022/09/26 00:31:05;;;;;;;;;;;;;;;8.28;75.39;99660.41;4956705;29;805;-60
2022/09/26 00:33:32;;;;;;;;;;;;;;;8.26;74.77;99659.22;4956608;29;1533;-60
2022/09/26 00:35:58;;;;;;;;;;;;;;;8.24;74.68;99667.84;4956609;29;875;-60
2022/09/26 00:38:25;;;;;;;;;;;;;;;8.18;75.64;99669.41;4956585;29;894;-60
2022/09/26 00:40:52;;;;;;;;;;;;;;;8.16;75.57;99663.50;4956396;29;975;-60
2022/09/26 00:43:45;;;;;;;;;;;;;;;8.19;75.87;99659.97;4956310;29;827;-60
2022/09/26 00:46:31;;;;;;;;;;;;;;;8.30;75.47;99658.03;4953937;29;2269;-60
2022/09/26 00:49:04;;;;;;;;;;;;;;;8.31;75.57;99654.09;4956329;29;884;-60
2022/09/26 00:51:31;;;;;;;;;;;;;;;8.32;75.67;99652.13;4956241;29;906;-60
2022/09/26 00:53:58;;;;;;;;;;;;;;;8.33;75.50;99651.72;4956271;29;844;-60
2022/09/26 00:56:33;;;;;;;;;;;;;;;8.33;75.91;99648.97;4956198;29;831;-60
2022/09/26 00:59:14;;;;;;;;;;;;;;;8.35;75.75;99648.59;4956920;29;777;-60
2022/09/26 01:01:41;;;;;;;;;;;;;;;8.45;75.31;99641.53;4956143;29;812;-60
2022/09/26 01:04:08;;;;;;;;;;;;;;;8.41;76.06;99646.25;4955987;29;1977;-60
2022/09/26 01:06:35;;;;;;;;;;;;;;;8.37;75.42;99646.25;4956053;29;815;-60
2022/09/26 01:09:07;;;;;;;;;;;;;;;8.35;75.76;99643.88;4955176;28;898;-60
2022/09/26 01:11:38;;;;;;;;;;;;;;;8.33;76.43;99639.94;4955816;29;836;-60
2022/09/26 01:14:06;;;;;;;;;;;;;;;8.42;75.70;99640.38;4956046;29;847;-60
2022/09/26 01:16:33;;;;;;;;;;;;;;;8.45;75.60;99634.09;4955813;29;831;-60
2022/09/26 01:19:01;;;;;;;;;;;;;;;8.31;75.46;99623.78;4955874;29;804;-60
2022/09/26 01:21:37;;;;;;;;;;;;;;;8.21;76.50;99634.78;4955674;29;970;-60
2022/09/26 01:24:22;;;;;;;;;;;;;;;8.06;76.26;99622.97;4955529;29;1883;-60
2022/09/26 01:27:09;;;;;;;;;;;;;;;8.15;76.19;99626.94;4955577;29;929;-60
2022/09/26 01:29:54;;;;;;;;;;;;;;;8.04;76.58;99639.84;4937668;29;1348;-60
2022/09/26 01:32:49;;;;;;;;;;;;;;;8.06;76.53;99639.47;4955820;29;1002;-60
2022/09/26 01:35:27;;;;;;;;;;;;;;;8.12;76.50;99635.19;4955603;29;875;-60
2022/09/26 01:37:54;;;;;;;;;;;;;;;8.27;76.06;99639.53;4955553;29;804;-60
2022/09/26 01:40:30;;;;;;;;;;;;;;;8.32;75.56;99636.41;4955504;29;824;-60
2022/09/26 01:42:58;;;;;;;;;;;;;;;8.35;75.69;99632.84;4955351;29;840;-60
2022/09/26 01:45:28;;;;;;;;;;;;;;;8.36;75.59;99631.69;4955226;29;1930;-60
2022/09/26 01:48:05;;;;;;;;;;;;;;;8.38;74.81;99634.84;4955401;29;808;-60
2022/09/26 01:50:38;;;;;;;;;;;;;;;8.27;74.86;99627.72;4955231;29;816;-60
2022/09/26 01:53:08;;;;;;;;;;;;;;;8.16;74.63;99636.75;4955285;29;800;-60
2022/09/26 01:55:41;;;;;;;;;;;;;;;8.14;75.30;99635.56;4955310;29;980;-60
2022/09/26 01:58:21;;;;;;;;;;;;;;;8.20;74.76;99636.78;4955077;29;815;-60
2022/09/26 02:00:48;;;;;;;;;;;;;;;8.15;74.98;99631.63;4955130;29;914;-60
2022/09/26 02:03:17;;;;;;;;;;;;;;;8.11;75.27;99639.91;4954977;29;866;-60
2022/09/26 02:05:44;;;;;;;;;;;;;;;8.06;75.66;99636.72;4954927;29;1890;-60
2022/09/26 02:08:15;;;;;;;;;;;;;;;7.92;75.86;99634.75;4954957;29;800;-60
2022/09/26 02:11:02;;;;;;;;;;;;;;;7.81;77.21;99634.69;4954857;29;890;-60
2022/09/26 02:13:33;;;;;;;;;;;;;;;7.89;76.56;99632.75;4954832;29;796;-60
2022/09/26 02:16:04;;;;;;;;;;;;;;;7.89;76.86;99636.28;4955442;29;831;-60
2022/09/26 02:18:34;;;;;;;;;;;;;;;7.75;76.80;99634.28;4954880;29;847;-60
2022/09/26 02:21:02;;;;;;;;;;;;;;;7.57;77.59;99641.66;4954700;28;902;-60
2022/09/26 02:23:28;;;;;;;;;;;;;;;7.50;77.91;99641.63;4954626;29;804;-60
2022/09/26 02:25:55;;;;;;;;;;;;;;;7.46;78.36;99638.84;4954762;29;1890;-60
2022/09/26 02:28:22;;;;;;;;;;;;;;;7.40;78.75;99637.66;4954631;29;827;-60
2022/09/26 02:30:50;;;;;;;;;;;;;;;7.32;79.61;99634.09;4954467;29;836;-60
2022/09/26 02:33:17;;;;;;;;;;;;;;;7.26;79.56;99624.63;4954485;29;1403;-60
2022/09/26 02:35:56;;;;;;;;;;;;;;;7.21;80.89;99625.00;4954700;29;824;-60
2022/09/26 02:38:28;;;;;;;;;;;;;;;7.19;80.86;99621.84;4954674;29;839;-60
2022/09/26 02:41:12;;;;;;;;;;;;;;;7.18;80.92;99620.25;4954168;29;936;-60
2022/09/26 02:43:57;;;;;;;;;;;;;;;7.20;81.84;99617.13;4954775;29;831;-60
2022/09/26 02:46:39;;;;;;;;;;;;;;;7.20;82.24;99620.66;4954268;29;827;-60
2022/09/26 02:49:24;;;;;;;;;;;;;;;7.13;83.27;99613.16;4954166;29;823;-60
2022/09/26 02:52:10;;;;;;;;;;;;;;;7.06;83.11;99615.06;4936952;29;1869;-60
2022/09/26 02:54:45;;;;;;;;;;;;;;;6.99;84.29;99617.78;4954041;29;856;-60
2022/09/26 02:57:21;;;;;;;;;;;;;;;6.95;84.96;99615.00;4954037;29;883;-60
2022/09/26 03:00:16;;;;;;;;;;;;;;;6.94;86.25;99616.19;4954054;29;828;-60
2022/09/26 03:02:54;;;;;;;;;;;;;;;6.94;87.35;99613.44;4951893;29;1410;-60
2022/09/26 03:05:22;;;;;;;;;;;;;;;6.94;87.14;99622.47;4953899;29;1890;-60
2022/09/26 03:07:58;;;;;;;;;;;;;;;6.97;88.46;99625.63;4954073;29;855;-60
2022/09/26 03:10:26;;;;;;;;;;;;;;;7.00;88.17;99625.66;4953717;29;871;-60
2022/09/26 03:12:53;;;;;;;;;;;;;;;7.02;87.98;99615.06;4953989;29;843;-60
2022/09/26 03:15:20;;;;;;;;;;;;;;;7.03;88.20;99610.34;4953800;29;868;-60
2022/09/26 03:17:50;;;;;;;;;;;;;;;6.98;87.46;99613.44;4953699;29;868;-60
2022/09/26 03:20:20;;;;;;;;;;;;;;;6.86;87.48;99615.34;4953677;29;934;-60
2022/09/26 03:22:48;;;;;;;;;;;;;;;6.71;88.20;99608.94;4953734;29;911;-60
2022/09/26 03:25:17;;;;;;;;;;;;;;;6.62;88.42;99607.72;4953464;29;1891;-60
2022/09/26 03:27:45;;;;;;;;;;;;;;;6.50;88.62;99609.56;4953717;29;942;-60
2022/09/26 03:30:13;;;;;;;;;;;;;;;6.37;88.66;99602.78;4953547;29;863;-60
2022/09/26 03:32:40;;;;;;;;;;;;;;;6.28;89.27;99596.84;4953542;28;1361;-60
2022/09/26 03:35:07;;;;;;;;;;;;;;;6.29;89.82;99604.69;4953859;29;801;-60
2022/09/26 03:37:36;;;;;;;;;;;;;;;6.33;90.24;99601.97;4953661;29;828;-60
2022/09/26 03:40:07;;;;;;;;;;;;;;;6.37;89.41;99610.25;4953439;29;902;-60
2022/09/26 03:42:33;;;;;;;;;;;;;;;6.39;90.84;99602.41;4936226;29;1164;-60
2022/09/26 03:45:01;;;;;;;;;;;;;;;6.36;90.24;99609.47;4953366;29;1918;-60
2022/09/26 03:47:28;;;;;;;;;;;;;;;6.34;91.17;99596.09;4953494;29;827;-60
2022/09/26 03:49:55;;;;;;;;;;;;;;;6.37;91.32;99599.25;4953491;29;914;-60
2022/09/26 03:52:21;;;;;;;;;;;;;;;6.37;91.34;99600.03;4953336;29;851;-60
2022/09/26 03:54:48;;;;;;;;;;;;;;;6.43;90.99;99601.28;4953428;29;859;-60
2022/09/26 03:57:15;;;;;;;;;;;;;;;6.42;91.20;99594.22;4953605;29;934;-60
2022/09/26 03:59:41;;;;;;;;;;;;;;;6.44;91.56;99597.34;4953340;29;867;-60
2022/09/26 04:02:08;;;;;;;;;;;;;;;6.44;91.64;99594.59;4953427;29;890;-60
2022/09/26 04:04:35;;;;;;;;;;;;;;;6.45;92.15;99589.91;4953200;29;1894;-60
2022/09/26 04:07:02;;;;;;;;;;;;;;;6.44;92.11;99580.88;4953450;29;959;-60
2022/09/26 04:09:29;;;;;;;;;;;;;;;6.45;92.60;99587.97;4953117;29;863;-60
2022/09/26 04:11:56;;;;;;;;;;;;;;;6.49;92.62;99591.53;4953469;29;836;-60
2022/09/26 04:14:23;;;;;;;;;;;;;;;6.53;92.46;99588.81;4953215;29;871;-60
2022/09/26 04:16:49;;;;;;;;;;;;;;;6.64;92.83;99597.13;4953282;29;773;-60
2022/09/26 04:19:17;;;;;;;;;;;;;;;6.71;92.90;99592.47;4935946;29;882;-60
2022/09/26 04:21:44;;;;;;;;;;;;;;;6.79;92.64;99593.31;4953268;29;839;-60
2022/09/26 04:24:14;;;;;;;;;;;;;;;6.84;92.22;99592.16;4953118;29;1899;-60
2022/09/26 04:26:42;;;;;;;;;;;;;;;6.91;92.36;99589.47;4953331;29;879;-60
2022/09/26 04:29:09;;;;;;;;;;;;;;;6.89;91.54;99578.06;4953353;29;871;-60
2022/09/26 04:31:36;;;;;;;;;;;;;;;6.93;91.49;99578.88;4945332;29;938;-60
2022/09/26 04:34:05;;;;;;;;;;;;;;;7.00;91.29;99576.19;4952849;29;1427;-60
2022/09/26 04:36:32;;;;;;;;;;;;;;;7.09;91.04;99576.63;4952980;29;906;-60
2022/09/26 04:38:59;;;;;;;;;;;;;;;7.24;90.87;99571.22;4953169;29;895;-60
2022/09/26 04:41:27;;;;;;;;;;;;;;;7.45;90.67;99581.50;4952910;29;887;-61
2022/09/26 04:43:55;;;;;;;;;;;;;;;7.61;89.34;99581.94;4954046;28;843;-61
2022/09/26 04:46:23;;;;;;;;;;;;;;;7.85;89.08;99583.22;4956254;29;1977;-61
2022/09/26 04:48:49;;;;;;;;;;;;;;;8.14;87.84;99577.75;4956379;29;934;-61
2022/09/26 04:51:17;;;;;;;;;;;;;;;8.44;86.92;99587.66;4956282;29;886;-60
2022/09/26 04:53:44;;;;;;;;;;;;;;;8.78;85.26;99579.75;4956353;29;803;-60
2022/09/26 04:56:12;;;;;;;;;;;;;;;9.09;84.16;99586.41;4956337;29;855;-60
2022/09/26 04:58:43;;;;;;;;;;;;;;;9.38;83.54;99575.28;4956167;29;804;-60
2022/09/26 05:01:17;;;;;;;;;;;;;;;9.65;82.96;99572.03;4956052;29;812;-60
2022/09/26 05:32:09;;;;;;;;;;;;;;;11.28;76.42;99600.75;5772982;23;1513;-62
2022/09/26 05:34:36;;;;;;;;;;;;;;;11.43;75.82;99599.41;4994524;28;845;-60
2022/09/26 05:37:02;;;;;;;;;;;;;;;11.60;74.88;99603.94;4994450;28;815;-61
2022/09/26 05:42:14;;;;;;;;;;;;;;;11.81;73.18;99597.34;4994151;28;685;-60
2022/09/26 05:44:41;;;;;;;;;;;;;;;11.79;72.05;99599.75;4994059;28;1977;-60
2022/09/26 05:47:08;;;;;;;;;;;;;;;11.83;71.34;99599.69;4994113;28;831;-60
2022/09/26 05:49:34;;;;;;;;;;;;;;;12.06;71.13;99601.78;4994077;28;814;-61
2022/09/26 05:52:02;;;;;;;;;;;;;;;12.39;70.16;99604.88;4994041;28;854;-60
2022/09/26 05:54:29;;;;;;;;;;;;;;;12.64;69.11;99607.25;4993614;28;846;-61
2022/09/26 05:56:56;;;;;;;;;;;;;;;12.96;67.59;99600.38;4993903;28;898;-60
2022/09/26 05:59:23;;;;;;;;;;;;;;;13.25;67.26;99604.19;4993890;28;835;-61
2022/09/26 06:01:49;;;;;;;;;;;;;;;13.53;66.92;99604.88;4993772;28;835;-61
2022/09/26 06:04:16;;;;;;;;;;;;;;;13.81;66.12;99611.06;4993612;28;1910;-61
2022/09/26 06:06:43;;;;;;;;;;;;;;;13.96;65.50;99608.75;4993815;28;903;-60
2022/09/26 06:09:09;;;;;;;;;;;;;;;13.91;64.98;99612.00;4993677;28;970;-61
2022/09/26 06:11:36;;;;;;;;;;;;;;;13.68;64.75;99610.91;4993828;28;819;-61
2022/09/26 06:14:03;;;;;;;;;;;;;;;13.46;64.85;99608.56;4976098;28;1189;-61
2022/09/26 06:16:29;;;;;;;;;;;;;;;13.42;65.29;99604.28;4993456;28;926;-61
2022/09/26 06:18:57;;;;;;;;;;;;;;;13.39;64.60;99603.16;4976003;28;1157;-60
2022/09/26 06:21:24;;;;;;;;;;;;;;;13.44;64.92;99604.63;4993369;28;850;-60
2022/09/26 06:23:50;;;;;;;;;;;;;;;13.68;64.57;99606.13;4993416;28;824;-61
2022/09/26 06:26:19;;;;;;;;;;;;;;;13.90;63.70;99619.56;4993449;28;1890;-60
2022/09/26 06:28:46;;;;;;;;;;;;;;;13.94;63.31;99614.72;4993352;28;862;-60
2022/09/26 06:31:13;;;;;;;;;;;;;;;13.98;63.09;99618.22;4993099;28;929;-61
2022/09/26 06:33:40;;;;;;;;;;;;;;;13.92;62.36;99617.16;4992992;28;1238;-61
2022/09/26 06:36:07;;;;;;;;;;;;;;;13.98;62.39;99609.09;4993137;28;929;-61
2022/09/26 06:38:35;;;;;;;;;;;;;;;14.05;61.75;99614.50;4993298;28;878;-60
2022/09/26 06:41:02;;;;;;;;;;;;;;;14.17;61.67;99613.06;4993298;28;811;-61
2022/09/26 06:43:28;;;;;;;;;;;;;;;14.45;61.28;99606.03;4993068;28;886;-60
2022/09/26 06:45:54;;;;;;;;;;;;;;;14.46;60.83;99607.59;4975541;28;1977;-61
2022/09/26 06:48:21;;;;;;;;;;;;;;;14.52;59.77;99603.09;4992917;28;866;-60
2022/09/26 06:50:52;;;;;;;;;;;;;;;14.74;58.75;99610.94;4993108;28;819;-58
2022/09/26 06:53:19;;;;;;;;;;;;;;;14.96;57.87;99602.84;4993099;28;804;-60
2022/09/26 06:55:45;;;;;;;;;;;;;;;15.14;56.76;99600.34;4993119;28;846;-60
2022/09/26 06:58:12;;;;;;;;;;;;;;;15.04;56.38;99591.06;4992772;28;819;-60
2022/09/26 07:00:39;;;;;;;;;;;;;;;15.14;56.17;99594.00;4992469;28;844;-60
2022/09/26 07:03:07;;;;;;;;;;;;;;;15.70;54.84;99588.84;4992645;28;842;-60
2022/09/26 07:05:33;;;;;;;;;;;;;;;16.49;52.13;99589.22;4992486;28;1890;-60
2022/09/26 07:08:01;;;;;;;;;;;;;;;17.27;50.29;99585.00;4992380;28;874;-60
2022/09/26 07:10:33;;;;;;;;;;;;;;;18.43;47.70;99581.44;4992606;28;820;-60
2022/09/26 07:13:02;;;;;;;;;;;;;;;19.52;44.77;99574.41;4992490;28;871;-60
2022/09/26 07:15:32;;;;;;;;;;;;;;;20.41;42.20;99577.06;4992542;28;843;-60
2022/09/26 07:18:03;;;;;;;;;;;;;;;21.10;40.32;99577.28;4992365;28;892;-60
2022/09/26 07:20:32;;;;;;;;;;;;;;;21.19;38.67;99580.03;4992427;28;800;-60
2022/09/26 07:23:02;;;;;;;;;;;;;;;21.18;37.54;99578.47;4992342;28;874;-60
2022/09/26 07:25:30;;;;;;;;;;;;;;;21.60;36.89;99577.47;4992325;28;1945;-61
2022/09/26 07:27:59;;;;;;;;;;;;;;;21.52;36.86;99585.50;4975816;28;1009;-61
2022/09/26 07:30:27;;;;;;;;;;;;;;;21.59;37.11;99581.53;4993067;28;822;-60
2022/09/26 07:33:04;;;;;;;;;;;;;;;21.70;37.02;99567.69;4992002;28;1147;-61
2022/09/26 07:35:32;;;;;;;;;;;;;;;21.95;35.77;99577.53;4992298;28;897;-59
2022/09/26 07:37:58;;;;;;;;;;;;;;;22.01;35.89;99578.41;4992288;28;877;-59
2022/09/26 07:40:25;;;;;;;;;;;;;;;22.00;36.22;99576.13;4992090;28;966;-60
2022/09/26 07:42:52;;;;;;;;;;;;;;;22.16;37.22;99561.50;4992221;28;877;-60
2022/09/26 07:50:10;;;;;;;;;;;;;;;21.55;38.48;99564.06;4992136;28;1906;-60
2022/09/26 07:50:59;;;;;;;;;;;;;;;20.62;41.95;99561.25;4992285;28;614;-60
2022/09/26 07:53:27;;;;;;;;;;;;;;;19.65;44.54;99574.22;4992171;28;858;-60
2022/09/26 07:56:05;;;;;;;;;;;;;;;19.47;46.10;99568.66;4992322;28;811;-60
2022/09/26 07:58:32;;;;;;;;;;;;;;;20.27;44.67;99556.13;4992080;28;835;-61
2022/09/26 08:00:58;;;;;;;;;;;;;;;20.61;44.24;99565.28;4991926;28;847;-61
2022/09/26 08:03:27;;;;;;;;;;;;;;;20.86;43.23;99561.22;4992172;28;811;-61
2022/09/26 08:05:58;;;;;;;;;;;;;;;21.22;42.40;99565.00;4991940;28;1886;-61
2022/09/26 08:08:26;;;;;;;;;;;;;;;21.30;42.35;99565.41;4991928;28;913;-62
2022/09/26 08:10:52;;;;;;;;;;;;;;;21.71;42.30;99554.41;4992239;28;835;-62
2022/09/26 08:13:19;;;;;;;;;;;;;;;22.12;40.93;99552.50;4991928;28;799;-63
2022/09/26 08:15:46;;;;;;;;;;;;;;;22.08;40.78;99549.09;4991929;28;863;-63
2022/09/26 08:18:13;;;;;;;;;;;;;;;22.12;40.94;99540.47;4993466;28;808;-63
2022/09/26 08:20:42;;;;;;;;;;;;;;;22.25;40.91;99540.16;4978229;28;1187;-63
2022/09/26 08:23:09;;;;;;;;;;;;;;;22.39;40.63;99537.31;4995647;28;851;-60
2022/09/26 08:25:36;;;;;;;;;;;;;;;22.90;39.65;99534.38;4978037;28;1892;-61
2022/09/26 08:28:05;;;;;;;;;;;;;;;22.97;39.73;99526.25;4995573;28;839;-60
2022/09/26 08:30:32;;;;;;;;;;;;;;;23.21;39.22;99528.06;4995404;28;942;-61
2022/09/26 08:33:00;;;;;;;;;;;;;;;22.99;39.62;99526.53;4977755;28;1292;-60
2022/09/26 08:35:37;;;;;;;;;;;;;;;22.81;39.96;99530.44;4995445;28;945;-60
2022/09/26 08:38:07;;;;;;;;;;;;;;;22.91;40.34;99513.38;4995420;28;835;-61
2022/09/26 08:40:44;;;;;;;;;;;;;;;23.19;39.69;99516.50;4995389;28;858;-61
2022/09/26 08:43:18;;;;;;;;;;;;;;;23.34;39.24;99511.56;4995228;28;918;-61
2022/09/26 08:46:31;;;;;;;;;;;;;;;23.07;40.19;99504.38;4995277;28;1918;-61
2022/09/26 08:48:57;;;;;;;;;;;;;;;23.00;40.25;99516.84;4994452;28;1052;-60
2022/09/26 08:51:24;;;;;;;;;;;;;;;23.18;40.56;99514.97;4995097;28;792;-60
2022/09/26 08:53:56;;;;;;;;;;;;;;;23.00;40.86;99522.47;4995277;28;864;-60
2022/09/26 08:56:29;;;;;;;;;;;;;;;23.10;40.49;99506.19;4995096;28;819;-60
2022/09/26 08:58:58;;;;;;;;;;;;;;;23.22;40.56;99502.22;4994858;28;975;-60
2022/09/26 09:01:29;;;;;;;;;;;;;;;23.43;40.52;99497.28;4995600;28;815;-61
2022/09/26 09:04:00;;;;;;;;;;;;;;;23.31;40.52;99492.03;4994938;28;863;-60
2022/09/26 09:06:27;;;;;;;;;;;;;;;23.39;40.71;99495.97;4994860;28;1940;-61
2022/09/26 09:08:55;;;;;;;;;;;;;;;23.30;39.94;99491.28;4994797;28;840;-60
2022/09/26 09:11:48;;;;;;;;;;;;;;;23.17;40.23;99485.22;4994785;28;787;-60
2022/09/26 09:14:45;;;;;;;;;;;;;;;23.35;40.32;99484.13;4995053;28;854;-61
2022/09/26 09:17:32;;;;;;;;;;;;;;;23.08;40.03;99483.34;4994903;28;819;-60
2022/09/26 09:20:25;;;;;;;;;;;;;;;22.96;40.65;99479.63;4994771;28;1921;-60
2022/09/26 09:23:10;;;;;;;;;;;;;;;23.12;40.98;99486.72;4972037;28;1213;-60
2022/09/26 09:25:47;;;;;;;;;;;;;;;23.04;40.95;99465.88;4994494;28;1886;-60
2022/09/26 09:28:14;;;;;;;;;;;;;;;23.29;40.82;99458.69;4994382;28;971;-61
2022/09/26 09:30:43;;;;;;;;;;;;;;;23.41;40.47;99473.69;4993873;28;838;-60
2022/09/26 09:33:13;;;;;;;;;;;;;;;23.58;40.30;99462.53;4976764;28;1421;-61
2022/09/26 09:36:01;;;;;;;;;;;;;;;23.55;39.57;99455.06;4994419;28;894;-61
2022/09/26 09:38:29;;;;;;;;;;;;;;;23.63;40.01;99442.06;4994231;28;831;-61
2022/09/26 09:40:54;;;;;;;;;;;;;;;23.89;39.72;99450.47;4994582;28;906;-61
2022/09/26 09:43:25;;;;;;;;;;;;;;;24.13;39.52;99455.75;4994165;28;858;-61
2022/09/26 09:45:54;;;;;;;;;;;;;;;24.33;38.99;99449.16;4994232;28;1942;-61
2022/09/26 09:48:24;;;;;;;;;;;;;;;24.45;38.63;99442.28;4994360;28;799;-61
2022/09/26 09:51:05;;;;;;;;;;;;;;;24.58;38.38;99432.59;4976469;28;767;-60
2022/09/26 09:53:38;;;;;;;;;;;;;;;24.61;38.28;99429.53;4994268;28;807;-60
2022/09/26 09:56:11;;;;;;;;;;;;;;;24.13;38.79;99438.81;4993987;28;799;-61
2022/09/26 09:58:37;;;;;;;;;;;;;;;24.48;39.00;99434.84;4993897;28;878;-61
2022/09/26 10:01:27;;;;;;;;;;;;;;;25.25;37.70;99426.31;4993882;28;799;-60
2022/09/26 10:04:02;;;;;;;;;;;;;;;25.45;37.40;99417.59;4986006;28;1091;-60
2022/09/26 10:06:31;;;;;;;;;;;;;;;24.94;37.89;99413.16;4993728;28;1957;-61
2022/09/26 10:09:04;;;;;;;;;;;;;;;25.09;37.92;99408.00;4994148;28;759;-61
2022/09/26 10:11:41;;;;;;;;;;;;;;;25.15;37.70;99403.13;4993735;28;804;-61
2022/09/26 10:14:18;;;;;;;;;;;;;;;25.43;37.20;99411.66;4993604;28;803;-61
2022/09/26 10:17:03;;;;;;;;;;;;;;;25.66;36.35;99406.72;4993609;28;850;-61
2022/09/26 10:19:35;;;;;;;;;;;;;;;25.80;35.86;99407.00;4993785;28;846;-61
2022/09/26 10:22:04;;;;;;;;;;;;;;;25.61;35.22;99398.28;4993302;28;890;-60
2022/09/26 10:24:39;;;;;;;;;;;;;;;25.02;36.39;99403.66;4993374;28;1883;-61
2022/09/26 10:27:23;;;;;;;;;;;;;;;24.59;37.51;99389.72;4993283;28;791;-61
2022/09/26 10:30:04;;;;;;;;;;;;;;;24.47;37.83;99382.44;4993354;28;807;-61
2022/09/26 10:32:41;;;;;;;;;;;;;;;25.00;36.28;99371.53;4993279;28;1284;-61
2022/09/26 10:35:16;;;;;;;;;;;;;;;25.26;36.40;99368.47;4993245;28;842;-61
2022/09/26 10:37:45;;;;;;;;;;;;;;;25.65;35.56;99371.25;4993055;28;982;-61
2022/09/26 10:40:44;;;;;;;;;;;;;;;25.96;35.21;99368.63;4993211;28;811;-60
2022/09/26 10:43:21;;;;;;;;;;;;;;;25.80;33.58;99379.44;4992695;28;815;-61
2022/09/26 10:45:53;;;;;;;;;;;;;;;25.96;33.99;99382.78;4992940;28;1973;-61
2022/09/26 10:48:23;;;;;;;;;;;;;;;26.32;34.13;99368.72;4993127;28;835;-60
2022/09/26 10:50:51;;;;;;;;;;;;;;;26.62;34.22;99368.84;4992850;28;933;-60
2022/09/26 10:53:21;;;;;;;;;;;;;;;26.52;33.51;99373.25;4992670;28;923;-60
2022/09/26 10:55:56;;;;;;;;;;;;;;;26.78;33.35;99361.50;4992755;28;870;-60
2022/09/26 10:58:26;;;;;;;;;;;;;;;26.73;32.75;99360.25;4992759;28;820;-60
2022/09/26 11:00:53;;;;;;;;;;;;;;;26.76;32.63;99356.38;4992632;28;808;-60
2022/09/26 11:03:25;;;;;;;;;;;;;;;26.89;32.99;99347.28;4992734;28;846;-60
2022/09/26 11:06:01;;;;;;;;;;;;;;;26.98;32.77;99341.25;4992564;28;1953;-60
2022/09/26 11:08:28;;;;;;;;;;;;;;;27.42;31.89;99330.84;4992618;28;917;-59
2022/09/26 11:11:02;;;;;;;;;;;;;;;27.66;31.14;99338.59;4992832;28;810;-59
2022/09/26 11:13:37;;;;;;;;;;;;;;;27.98;31.25;99331.53;4992471;28;898;-59
2022/09/26 11:16:09;;;;;;;;;;;;;;;28.23;30.30;99315.97;4975042;28;1892;-59
2022/09/26 11:18:44;;;;;;;;;;;;;;;28.14;30.41;99316.34;4992331;28;943;-59
2022/09/26 11:21:30;;;;;;;;;;;;;;;28.16;30.63;99313.72;4992458;28;878;-59
2022/09/26 11:24:10;;;;;;;;;;;;;;;28.39;30.24;99308.50;4992720;28;823;-59
2022/09/26 11:26:48;;;;;;;;;;;;;;;28.60;29.90;99302.31;4992219;28;1902;-59
2022/09/26 11:29:26;;;;;;;;;;;;;;;28.69;29.43;99299.03;4992600;28;898;-59
2022/09/26 11:31:53;;;;;;;;;;;;;;;29.08;28.54;99304.09;4992383;28;1013;-59
2022/09/26 11:34:25;;;;;;;;;;;;;;;29.42;27.56;99306.34;4992167;28;1416;-60
2022/09/26 11:37:10;;;;;;;;;;;;;;;29.42;27.10;99303.50;4992271;28;931;-59
2022/09/26 11:43:09;;;;;;;;;;;;;;;28.74;28.23;99303.09;4992282;28;645;-60
2022/09/26 11:45:54;;;;;;;;;;;;;;;28.94;28.64;99296.06;4992130;28;1914;-61
2022/09/26 11:48:39;;;;;;;;;;;;;;;29.08;28.51;99297.63;4992354;28;791;-60
2022/09/26 11:51:20;;;;;;;;;;;;;;;29.21;28.85;99305.44;4992090;28;811;-61
2022/09/26 11:53:46;;;;;;;;;;;;;;;29.33;28.28;99308.84;4994912;28;795;-61
2022/09/26 11:56:19;;;;;;;;;;;;;;;29.63;27.53;99300.75;4996409;28;776;-60
2022/09/26 11:59:05;;;;;;;;;;;;;;;29.85;26.75;99293.88;4996015;28;848;-60
2022/09/26 12:01:54;;;;;;;;;;;;;;;29.82;26.11;99280.72;4996133;28;882;-61
2022/09/26 12:04:48;;;;;;;;;;;;;;;29.65;26.83;99274.59;4995861;28;1878;-60
2022/09/26 12:07:20;;;;;;;;;;;;;;;29.83;26.41;99270.09;4996359;28;807;-60
2022/09/26 12:09:47;;;;;;;;;;;;;;;29.80;26.17;99266.28;4995797;28;936;-61
2022/09/26 12:12:23;;;;;;;;;;;;;;;29.47;26.63;99264.88;4995813;28;951;-63
2022/09/26 12:14:51;;;;;;;;;;;;;;;29.47;26.56;99262.78;4995820;28;878;-62
2022/09/26 12:17:35;;;;;;;;;;;;;;;29.57;26.55;99270.88;4995870;28;866;-61
2022/09/26 12:20:01;;;;;;;;;;;;;;;28.98;26.93;99270.91;4995706;28;843;-61
2022/09/26 12:22:32;;;;;;;;;;;;;;;28.63;27.45;99261.41;4995741;28;866;-61
2022/09/26 12:25:00;;;;;;;;;;;;;;;28.52;27.97;99262.34;4995422;28;1890;-63
2022/09/26 12:27:31;;;;;;;;;;;;;;;28.99;27.76;99275.28;4995569;28;909;-61
2022/09/26 12:30:08;;;;;;;;;;;;;;;29.24;26.98;99270.97;4995554;28;858;-61
2022/09/26 12:32:40;;;;;;;;;;;;;;;29.68;26.05;99262.09;4995321;28;1211;-61
2022/09/26 12:35:33;;;;;;;;;;;;;;;30.20;25.47;99254.03;4995522;28;815;-62
2022/09/26 12:38:13;;;;;;;;;;;;;;;29.84;25.65;99246.78;4995375;28;1032;-62
2022/09/26 12:40:58;;;;;;;;;;;;;;;29.84;25.50;99246.78;4995504;28;958;-61
2022/09/26 12:43:43;;;;;;;;;;;;;;;29.62;25.18;99241.53;4995220;28;859;-61
2022/09/26 12:46:17;;;;;;;;;;;;;;;29.64;24.94;99241.75;4995287;28;1906;-62
2022/09/26 12:48:48;;;;;;;;;;;;;;;29.83;25.22;99238.78;4995270;28;858;-62
2022/09/26 12:51:35;;;;;;;;;;;;;;;29.77;25.66;99238.91;4995140;28;823;-61
2022/09/26 12:54:17;;;;;;;;;;;;;;;29.09;25.98;99236.56;4995116;28;851;-62
2022/09/26 12:56:51;;;;;;;;;;;;;;;28.46;26.47;99236.06;4995139;28;858;-62
2022/09/26 12:59:30;;;;;;;;;;;;;;;28.28;26.76;99235.56;4994935;28;887;-61
2022/09/26 13:02:08;;;;;;;;;;;;;;;28.73;26.38;99230.50;4995010;28;853;-61
2022/09/26 13:04:58;;;;;;;;;;;;;;;29.18;26.39;99226.88;4976284;28;1894;-61
2022/09/26 13:07:33;;;;;;;;;;;;;;;29.48;26.39;99226.53;4994884;28;834;-61
2022/09/26 13:10:18;;;;;;;;;;;;;;;29.45;26.38;99219.09;4994924;28;843;-60
2022/09/26 13:12:47;;;;;;;;;;;;;;;29.74;26.03;99220.06;4994893;28;866;-61
2022/09/26 13:15:17;;;;;;;;;;;;;;;29.78;26.09;99214.78;4994916;28;899;-60
2022/09/26 13:17:48;;;;;;;;;;;;;;;29.46;26.20;99215.69;4994836;28;943;-60
2022/09/26 13:20:18;;;;;;;;;;;;;;;29.22;26.77;99204.56;4994928;28;818;-61
2022/09/26 13:22:51;;;;;;;;;;;;;;;28.80;27.28;99215.63;4994662;28;811;-61
2022/09/26 13:25:20;;;;;;;;;;;;;;;28.78;27.56;99213.31;4994380;28;1965;-61
2022/09/26 13:27:47;;;;;;;;;;;;;;;29.29;27.10;99209.56;4994801;28;799;-60
2022/09/26 13:30:19;;;;;;;;;;;;;;;29.67;26.45;99215.00;4994639;28;858;-61
2022/09/26 13:36:03;;;;;;;;;;;;;;;28.27;27.49;99190.63;4991491;28;1265;-61
2022/09/26 13:38:38;;;;;;;;;;;;;;;27.71;27.60;99180.84;4994237;28;958;-61
2022/09/26 13:41:17;;;;;;;;;;;;;;;27.14;27.96;99180.78;4994426;28;791;-60
2022/09/26 13:43:59;;;;;;;;;;;;;;;26.91;28.43;99180.25;4994305;28;910;-60
2022/09/26 13:46:31;;;;;;;;;;;;;;;26.79;28.57;99178.81;4993987;28;1914;-60
2022/09/26 13:49:04;;;;;;;;;;;;;;;26.78;29.18;99180.09;4994146;28;901;-60
2022/09/26 13:51:39;;;;;;;;;;;;;;;26.95;28.91;99179.94;4994063;28;842;-60
2022/09/26 13:54:32;;;;;;;;;;;;;;;27.18;28.59;99172.69;4993908;28;889;-60
2022/09/26 13:56:59;;;;;;;;;;;;;;;27.80;27.76;99171.97;4971276;28;1710;-60
2022/09/26 13:59:31;;;;;;;;;;;;;;;28.23;26.71;99179.59;4993942;28;917;-60
2022/09/26 14:02:16;;;;;;;;;;;;;;;28.43;25.89;99177.47;4993916;28;839;-60
2022/09/26 14:04:44;;;;;;;;;;;;;;;28.57;25.26;99166.94;4993747;28;1890;-60
2022/09/26 14:10:02;;;;;;;;;;;;;;;27.76;25.85;99160.16;4993689;28;625;-60
2022/09/26 14:12:49;;;;;;;;;;;;;;;27.42;26.57;99157.75;4993855;28;951;-60
2022/09/26 14:15:21;;;;;;;;;;;;;;;27.18;27.28;99160.59;4993707;28;819;-60
2022/09/26 14:17:48;;;;;;;;;;;;;;;27.09;27.16;99156.81;4993528;28;882;-60
2022/09/26 14:20:30;;;;;;;;;;;;;;;27.04;27.69;99159.75;4993533;28;804;-60